Terminal Aerodrome Forecast
Issued by NWS Huntsville, AL

Home | Current Version | Previous Version | Text Only | Print | Product List | Glossary On
Versions: 1 2 3 4 5 6 7 8 9 10 11 12 13 14 15 16 17 18 19 20 21 22 23 24 25 26 27 28 29 30 31 32 33 34 35 36 37 38 39 40
000
FTUS44 KHUN 240520
TAFMSL
TAF
KMSL 240520Z 2406/2506 VRB03KT P6SM FEW030 BKN250
     FM240600 00000KT P6SM VCTS SCT040CB BKN100
      TEMPO 2411/2415 3SM TSRA BR SCT020 OVC040CB
     FM241700 28006KT P6SM VCSH BKN040
     FM242100 30008KT P6SM SCT250=

USA.gov is the U.S. government's official web portal to all federal, state and local government web resources and services.